createdAt,value
2022-12-23T00:00:25.895Z,2.92
2022-12-23T00:02:52.663Z,2.05
2022-12-23T00:05:19.293Z,2.92
2022-12-23T00:07:45.820Z,3.17
2022-12-23T00:10:12.750Z,1.65
2022-12-23T00:12:57.685Z,2.33
2022-12-23T00:15:24.471Z,2.80
2022-12-23T00:17:51.526Z,2.50
2022-12-23T00:20:18.233Z,2.25
2022-12-23T00:23:03.306Z,2.80
2022-12-23T00:25:41.882Z,2.92
2022-12-23T00:28:11.900Z,2.45
2022-12-23T00:30:44.783Z,2.83
2022-12-23T00:33:11.270Z,3.60
2022-12-23T00:35:37.856Z,4.35
2022-12-23T00:38:04.345Z,2.25
2022-12-23T00:40:49.379Z,2.17
2022-12-23T00:43:16.188Z,2.40
2022-12-23T00:45:42.957Z,3.30
2022-12-23T00:48:28.128Z,2.08
2022-12-23T00:50:55.096Z,2.05
2022-12-23T00:53:21.721Z,1.85
2022-12-23T00:55:48.962Z,6.50
2022-12-23T00:58:15.990Z,2.58
2022-12-23T01:01:01.784Z,1.80
2022-12-23T01:03:47.514Z,3.13
2022-12-23T01:06:14.067Z,1.60
2022-12-23T01:08:40.987Z,2.47
2022-12-23T01:11:10.026Z,2.60
2022-12-23T01:13:37.120Z,2.78
2022-12-23T01:16:10.600Z,2.45
2022-12-23T01:18:42.333Z,2.10
2022-12-23T01:21:09.977Z,1.83
2022-12-23T01:23:36.819Z,2.75
2022-12-23T01:26:06.961Z,2.60
2022-12-23T01:28:34.102Z,3.33
2022-12-23T01:31:01.981Z,1.88
2022-12-23T01:33:28.732Z,1.98
2022-12-23T01:36:02.056Z,2.03
2022-12-23T01:38:28.921Z,1.70
2022-12-23T01:40:55.728Z,1.88
2022-12-23T01:43:22.448Z,2.17
2022-12-23T01:45:49.064Z,1.88
2022-12-23T01:48:24.673Z,4.10
2022-12-23T01:50:54.226Z,2.58
2022-12-23T01:53:28.501Z,2.63
2022-12-23T01:56:03.044Z,2.05
2022-12-23T01:58:31.976Z,2.55
2022-12-23T02:01:17.642Z,1.77
2022-12-23T02:03:45.182Z,1.50
2022-12-23T02:06:33.522Z,1.83
2022-12-23T02:09:18.152Z,1.88
2022-12-23T02:12:03.587Z,6.25
2022-12-23T02:14:51.728Z,1.90
2022-12-23T02:17:18.282Z,1.98
2022-12-23T02:20:05.041Z,4.72
2022-12-23T02:22:44.070Z,2.03
2022-12-23T02:25:10.599Z,2.00
2022-12-23T02:27:55.644Z,1.73
2022-12-23T02:30:22.186Z,2.42
2022-12-23T02:33:18.083Z,2.55
2022-12-23T02:36:05.928Z,2.33
2022-12-23T02:38:54.200Z,3.30
2022-12-23T02:41:28.531Z,3.28
2022-12-23T02:44:04.113Z,3.75
2022-12-23T02:46:36.479Z,2.30
2022-12-23T02:49:09.218Z,4.20
2022-12-23T02:51:38.187Z,1.95
2022-12-23T02:54:08.193Z,2.63
2022-12-23T02:56:36.120Z,2.58
2022-12-23T02:59:09.507Z,2.78
2022-12-23T03:01:37.526Z,3.03
2022-12-23T03:04:06.553Z,2.15
2022-12-23T03:06:36.012Z,2.70
2022-12-23T03:09:02.833Z,1.60
2022-12-23T03:11:40.367Z,2.85
2022-12-23T03:14:17.894Z,2.03
2022-12-23T03:17:03.175Z,2.40
2022-12-23T03:19:29.674Z,1.65
2022-12-23T03:22:14.479Z,3.17
2022-12-23T03:25:04.180Z,2.90
2022-12-23T03:27:40.410Z,4.03
2022-12-23T03:30:08.214Z,2.45
2022-12-23T03:32:46.908Z,2.33
2022-12-23T03:35:15.950Z,2.45
2022-12-23T03:37:44.912Z,2.85
2022-12-23T03:40:34.558Z,2.92
2022-12-23T03:43:07.006Z,2.15
2022-12-23T03:45:41.033Z,3.00
2022-12-23T03:48:28.163Z,2.17
2022-12-23T03:50:57.137Z,1.73
2022-12-23T03:53:32.120Z,2.53
2022-12-23T03:56:01.886Z,2.33
2022-12-23T03:58:28.321Z,3.40
2022-12-23T04:01:00.698Z,2.75
2022-12-23T04:03:34.304Z,2.33
2022-12-23T04:06:03.279Z,1.40
2022-12-23T04:08:32.859Z,2.13
2022-12-23T04:10:59.599Z,2.03
2022-12-23T04:13:27.109Z,2.40
2022-12-23T04:15:54.103Z,1.70
2022-12-23T04:18:20.602Z,2.33
2022-12-23T04:20:47.105Z,2.38
2022-12-23T04:23:13.928Z,1.90
2022-12-23T04:25:40.539Z,1.52
2022-12-23T04:28:07.046Z,2.13
2022-12-23T04:30:34.593Z,2.72
2022-12-23T04:33:01.916Z,1.77
2022-12-23T04:35:28.459Z,2.75
2022-12-23T04:37:54.988Z,2.05
2022-12-23T04:40:21.498Z,2.67
2022-12-23T04:42:48.104Z,2.03
2022-12-23T04:45:14.678Z,1.58
2022-12-23T04:47:41.435Z,1.70
2022-12-23T04:50:08.362Z,2.40
2022-12-23T04:52:34.999Z,1.67
2022-12-23T04:55:01.609Z,2.25
2022-12-23T04:57:28.203Z,3.00
2022-12-23T04:59:54.697Z,1.73
2022-12-23T05:02:21.371Z,2.60
2022-12-23T05:04:48.022Z,2.55
2022-12-23T05:07:14.579Z,2.05
2022-12-23T05:09:41.100Z,3.42
2022-12-23T05:12:07.598Z,3.17
2022-12-23T05:14:34.218Z,2.30
2022-12-23T05:17:06.948Z,1.85
2022-12-23T05:19:34.119Z,1.90
2022-12-23T05:22:00.684Z,2.33
2022-12-23T05:24:27.365Z,2.35
2022-12-23T05:26:59.687Z,2.35
2022-12-23T05:29:26.807Z,2.42
2022-12-23T05:31:53.345Z,2.97
2022-12-23T05:34:19.971Z,3.13
2022-12-23T05:36:46.476Z,5.57
2022-12-23T05:39:12.966Z,2.78
2022-12-23T05:41:39.368Z,4.07
2022-12-23T05:44:06.034Z,5.75
2022-12-23T05:46:32.797Z,11.68
2022-12-23T05:48:59.537Z,18.55
2022-12-23T05:51:26.175Z,8.00
2022-12-23T05:53:52.803Z,20.40
2022-12-23T05:56:19.453Z,18.13
2022-12-23T05:58:46.294Z,19.52
2022-12-23T06:01:13.135Z,20.15
2022-12-23T06:03:39.881Z,25.10
2022-12-23T06:06:06.602Z,23.00
2022-12-23T06:08:33.294Z,28.30
2022-12-23T06:11:00.031Z,11.82
2022-12-23T06:13:26.754Z,22.45
2022-12-23T06:15:53.447Z,29.23
2022-12-23T06:18:19.979Z,5.53
2022-12-23T06:20:47.738Z,8.73
2022-12-23T06:23:14.314Z,8.82
2022-12-23T06:25:40.974Z,9.32
2022-12-23T06:28:08.089Z,15.20
2022-12-23T06:30:34.803Z,11.15
2022-12-23T06:33:01.381Z,15.63
2022-12-23T06:35:27.848Z,21.42
2022-12-23T06:37:54.478Z,13.93
2022-12-23T06:40:21.063Z,10.23
2022-12-23T06:42:47.606Z,7.20
2022-12-23T06:45:14.266Z,18.83
2022-12-23T06:47:40.815Z,9.05
2022-12-23T06:50:07.644Z,6.28
2022-12-23T06:52:34.186Z,8.48
2022-12-23T06:55:00.727Z,7.30
2022-12-23T06:57:27.304Z,6.00
2022-12-23T06:59:53.892Z,7.35
2022-12-23T07:02:20.544Z,9.85
2022-12-23T07:04:47.179Z,6.72
2022-12-23T07:07:13.697Z,4.82
2022-12-23T07:09:40.190Z,3.30
2022-12-23T07:12:06.825Z,5.28
2022-12-23T07:14:33.377Z,5.43
2022-12-23T07:16:59.950Z,5.55
2022-12-23T07:19:26.573Z,4.60
2022-12-23T07:21:53.203Z,7.00
2022-12-23T07:24:19.767Z,6.53
2022-12-23T07:26:46.432Z,6.38
2022-12-23T07:29:13.009Z,4.68
2022-12-23T07:31:41.303Z,5.75
2022-12-23T07:34:08.309Z,5.28
2022-12-23T07:36:34.896Z,5.05
2022-12-23T07:39:01.390Z,7.18
2022-12-23T07:41:28.107Z,7.07
2022-12-23T07:43:54.760Z,7.68
2022-12-23T07:46:21.389Z,7.90
2022-12-23T07:48:48.008Z,6.70
2022-12-23T07:51:14.576Z,6.07
2022-12-23T07:53:41.206Z,4.45
2022-12-23T07:56:08.012Z,6.05
2022-12-23T07:58:34.589Z,3.15
2022-12-23T08:01:02.466Z,5.47
2022-12-23T08:03:29.144Z,7.75
2022-12-23T08:06:08.799Z,3.88
2022-12-23T08:08:35.571Z,6.03
2022-12-23T08:11:03.873Z,4.35
2022-12-23T08:13:30.781Z,3.75
2022-12-23T08:15:58.041Z,6.60
2022-12-23T08:18:24.978Z,7.05
2022-12-23T08:21:01.803Z,3.75
2022-12-23T08:23:29.230Z,5.20
2022-12-23T08:26:12.101Z,4.25
2022-12-23T08:28:39.152Z,3.72
2022-12-23T08:31:09.724Z,5.00
2022-12-23T08:33:38.217Z,8.93
2022-12-23T08:36:05.407Z,6.15
2022-12-23T08:38:32.258Z,2.53
2022-12-23T08:40:58.777Z,4.18
2022-12-23T08:43:27.704Z,4.38
2022-12-23T08:45:58.521Z,3.03
2022-12-23T08:48:25.084Z,5.50
2022-12-23T08:50:51.592Z,3.80
2022-12-23T08:53:18.377Z,6.13
2022-12-23T08:55:46.041Z,4.93
2022-12-23T08:58:13.095Z,7.90
2022-12-23T09:00:40.004Z,7.43
2022-12-23T09:03:06.652Z,5.95
2022-12-23T09:05:33.569Z,7.53
2022-12-23T09:08:00.388Z,8.27
2022-12-23T09:10:26.980Z,7.15
2022-12-23T09:12:57.697Z,8.52
2022-12-23T09:15:24.604Z,15.13
2022-12-23T09:17:51.121Z,13.00
2022-12-23T09:20:17.679Z,12.13
2022-12-23T09:22:44.193Z,14.70
2022-12-23T09:25:11.011Z,11.82
2022-12-23T09:27:37.591Z,9.63
2022-12-23T09:30:04.376Z,14.32
2022-12-23T09:32:31.705Z,15.70
2022-12-23T09:34:58.305Z,7.30
2022-12-23T09:37:25.432Z,7.38
2022-12-23T09:39:52.001Z,8.55
2022-12-23T09:42:28.391Z,4.50
2022-12-23T09:44:57.576Z,9.23
2022-12-23T09:47:25.357Z,12.05
2022-12-23T09:49:53.742Z,6.07
2022-12-23T09:52:24.123Z,8.02
2022-12-23T09:54:52.663Z,9.45
2022-12-23T09:57:22.490Z,7.93
2022-12-23T09:59:48.966Z,5.32
2022-12-23T10:02:30.921Z,6.53
2022-12-23T10:05:16.711Z,7.43
2022-12-23T10:07:45.828Z,9.90
2022-12-23T10:10:38.813Z,13.55
2022-12-23T10:13:06.677Z,13.80
2022-12-23T10:15:43.118Z,16.50
2022-12-23T10:18:18.096Z,11.63
2022-12-23T10:20:48.014Z,7.45
2022-12-23T10:23:21.048Z,12.73
2022-12-23T10:25:51.710Z,5.40
2022-12-23T10:28:18.658Z,8.15
2022-12-23T10:33:36.358Z,12.77
2022-12-23T10:36:03.574Z,9.55
2022-12-23T10:38:36.117Z,10.20
2022-12-23T10:41:20.769Z,9.52
2022-12-23T10:44:10.301Z,7.82
2022-12-23T10:46:42.514Z,10.35
2022-12-23T10:49:31.903Z,10.68
2022-12-23T10:52:00.278Z,8.25
2022-12-23T10:54:28.247Z,7.85
2022-12-23T10:56:55.065Z,11.23
2022-12-23T10:59:29.087Z,9.00
2022-12-23T11:02:06.669Z,11.30
2022-12-23T11:04:36.986Z,15.02
2022-12-23T11:07:42.223Z,11.68
2022-12-23T11:09:55.685Z,10.60
2022-12-23T11:12:22.917Z,19.13
2022-12-23T11:14:54.028Z,9.90
2022-12-23T11:17:20.702Z,11.38
2022-12-23T11:19:47.258Z,7.93
2022-12-23T11:22:22.479Z,9.73
2022-12-23T11:24:48.941Z,16.67
